• Join FlightAware (Why Join?)
  • Login
  • US Flag 
10:42PM EDT


 

Airport Tracker/Info


-or-


 

Live Flight TrackerFlight Track Log ✈ DAL6225 ✈ 18-Mar-2014 ✈ KLGA - KILM

Flight Track Log - Related Links

Times and Time Zones

All times are in EDT time to prevent confusion due to time zone crossing. See the DAL6225 flight status page for this flight to view local times or setup timezone preferences in your user account.

Time Position Orientation Groundspeed Altitude Reporting Facility
EDT Latitude Longitude Course Direction KTS MPH feet Rate Location/Type
09:56PM 40.7667 -73.8500 90° East 133 153 1,300  Level New York TRACON
09:57PM 40.7667 -73.8000 90° East 184 212 3,900 2,880 Climbing New York TRACON
09:58PM 40.8000 -73.8167 339° North 234 269 7,400 2,820 Climbing New York TRACON
09:59PM 40.7833 -73.9000 255° West 245 282 9,900 1,980 Climbing New York TRACON
10:00PM 40.7167 -73.9667 217° Southwest 324 373 11,400 720 Climbing New York TRACON
10:02PM 40.5811 -74.1047 218° Southwest 384 442 12,000 720 Climbing New York Center
10:03PM 40.4919 -74.1631 206° Southwest 373 429 13,500 1,680 Climbing New York Center
10:04PM 40.3978 -74.1803 188° South 372 428 15,400 1,980 Climbing New York Center
10:05PM 40.2761 -74.2042 189° South 394 453 17,500 1,680 Climbing New York Center
10:07PM 40.0664 -74.2606 192° South 413 475 20,400 1,440 Climbing Washington Center
10:08PM 39.9781 -74.3594 221° Southwest 390 449 21,800 1,380 Climbing Washington Center
10:09PM 39.8872 -74.4611 221° Southwest 412 474 23,200 1,200 Climbing Washington Center
10:10PM 39.7944 -74.5653 221° Southwest 434 499 24,200 1,020 Climbing Washington Center
10:11PM 39.7017 -74.6692 221° Southwest 439 505 25,300 1,200 Climbing Washington Center
10:12PM 39.6086 -74.7753 221° Southwest 446 513 26,700 1,140 Climbing Washington Center
10:13PM 39.5133 -74.8761 219° Southwest 452 520 27,600 1,680 Climbing Washington Center
10:14PM 39.4203 -74.9683 217° Southwest 452 520 30,200 1,680 Climbing Washington Center
10:15PM 39.3142 -75.0336 205° Southwest 442 509 31,000 900 Climbing Washington Center
10:16PM 39.2061 -75.1014 206° Southwest 436 502 32,000 1,320 Climbing Washington Center
10:17PM 39.0981 -75.1636 204° Southwest 430 495 33,700 1,140 Climbing Washington Center
10:18PM 38.9897 -75.2231 203° Southwest 425 489 34,300 1,140 Climbing Washington Center
10:19PM 38.8836 -75.2983 209° Southwest 425 489 36,000 1,560 Climbing Washington Center
10:20PM 38.7797 -75.3600 205° Southwest 419 482 37,500 960 Climbing Washington Center
10:21PM 38.6756 -75.4242 206° Southwest 419 482 38,000 240 Climbing Washington Center
10:22PM 38.5714 -75.4803 203° Southwest 419 482 38,000  Level Washington Center
10:23PM 38.4608 -75.5467 205° Southwest 424 488 38,000  Level Washington Center
10:24PM 38.3525 -75.6181 207° Southwest 429 494 38,000  Level Washington Center
10:25PM 38.2397 -75.6764 202° Southwest 434 499 38,000  Level Washington Center
10:26PM 38.1314 -75.7397 205° Southwest 434 499 38,000  Level Washington Center
10:27PM 38.0375 -75.8053 209° Southwest 434 499 38,000  Level Washington Center
10:28PM 37.9142 -75.8708 203° Southwest 434 499 38,000  Level Washington Center
10:29PM 37.8036 -75.9333 204° Southwest 434 499 38,000  Level Washington Center
10:30PM 37.7094 -75.9961 208° Southwest 434 499 38,000  Level Washington Center
10:31PM 37.5967 -76.0611 205° Southwest 434 499 38,000  Level Washington Center
10:32PM 37.4836 -76.1258 204° Southwest 444 511 38,000  Level Washington Center
10:33PM 37.3561 -76.1928 203° Southwest 444 511 38,000  Level Washington Center
10:34PM 37.2453 -76.2572 205° Southwest 444 511 38,000  Level Washington Center
10:35PM 37.1303 -76.3214 204° Southwest 444 511 38,000 -180 Level Washington Center
10:36PM 37.0192 -76.3853 205° Southwest 444 511 37,700 -720 Descending Washington Center
10:37PM 36.9103 -76.4492 205° Southwest 444 511 36,600 -1,080 Descending Washington Center
10:38PM 36.8078 -76.5075 204° Southwest 432 497 35,600 -840 Descending Washington Center
10:39PM 36.7239 -76.5558 205° Southwest 421 484 34,900 -1,020 Descending Washington Center
10:40PM 36.6042 -76.6294 206° Southwest 427 491 33,600 -1,560 Descending Washington Center
10:41PM 36.4764 -76.7000 204° Southwest 450 518 31,900 -1,620 Descending Washington Center
10:42PM 36.3611 -76.7656 205° Southwest 461 531 30,500 -1,440 Descending Washington Center
10:43PM 36.2436 -76.8308 204° Southwest 461 531 29,100 -1,380 Descending Washington Center
10:44PM 36.1322 -76.8908 204° Southwest 456 525 27,700 -1,380 Descending Washington Center
10:45PM 36.0231 -76.9531 205° Southwest 445 512 26,300 -1,440 Descending Washington Center
10:46PM 35.9139 -77.0103 203° Southwest 440 506 24,900 -1,440 Descending Washington Center
10:47PM 35.8047 -77.0697 204° Southwest 435 501 23,500 -1,380 Descending Washington Center
10:48PM 35.6933 -77.1342 205° Southwest 440 506 22,200 -1,380 Descending Washington Center
10:49PM 35.5861 -77.1908 203° Southwest 435 501 20,800 -1,440 Descending Washington Center
10:50PM 35.4811 -77.2525 206° Southwest 424 488 19,400 -1,500 Descending Washington Center
10:51PM 35.3717 -77.3089 203° Southwest 424 488 17,900 -1,440 Descending Washington Center
10:52PM 35.2644 -77.3675 204° Southwest 424 488 16,600 -1,260 Descending Washington Center
10:53PM 35.1592 -77.4264 205° Southwest 424 488 15,400 -1,080 Descending Washington Center
10:54PM 35.0667 -77.4750 203° Southwest 419 482 14,500 -1,080 Descending Washington Center
10:55PM 34.9656 -77.5333 205° Southwest 413 475 13,300 -1,080 Descending Washington Center
10:56PM 34.8606 -77.5867 203° Southwest 413 475 12,400 -1,080 Descending Washington Center
10:57PM 34.7719 -77.6400 206° Southwest 391 450 11,200 -1,500 Descending Washington Center
10:58PM 34.6919 -77.6733 199° South 344 396 9,400 -1,920 Descending Washington Center
10:59PM 34.6128 -77.6739 180° South 298 343 7,400 -1,680 Descending Washington Center
11:00PM 34.5314 -77.6769 182° South 298 343 6,100 -1,140 Descending Washington Center
11:01PM 34.4519 -77.6775 180° South 293 337 5,200 -900 Descending Washington Center
11:02PM 34.3789 -77.6806 182° South 281 323 4,300 -960 Descending Washington Center
11:03PM 34.3058 -77.6814 181° South 275 316 3,400 -900 Descending Washington Center
11:04PM 34.2308 -77.6819 180° South 275 316 2,500 -660 Descending Washington Center
11:05PM 34.1536 -77.6850 182° South 275 316 2,100 -420 Descending Washington Center
11:06PM 34.0983 -77.7411 220° Southwest 262 302 1,700 -240 Descending Washington Center
11:07PM 34.0867 -77.8136 259° West 226 260 1,700  Level Washington Center
11:08PM 34.1319 -77.8450 330° Northwest 137 158 1,700  Level Washington Center
11:09PM 34.1775 -77.8636 341° North 137 158 1,700 -300 Level Washington Center
11:10PM 34.2147 -77.8797 340° North 144 166 1,200 -660 Descending Washington Center
11:11PM 34.2436 -77.8956 336° Northwest 132 152 500 -480 Descending Washington Center
11:12PM 34.2786 -77.9167 334° Northwest 127 146 300 -240 Descending Washington Center
11:14PM 34.2667 -77.9000 90° East  Level FlightAware Approximate